sensor_id;sensor_type;location;lat;lon;timestamp;P1;durP1;ratioP1;P2;durP2;ratioP2
11522;SDS011;40093;43.224;27.910;2022-07-04T00:01:42;8.50;;;6.30;;
11522;SDS011;40093;43.224;27.910;2022-07-04T00:04:09;11.50;;;6.73;;
11522;SDS011;40093;43.224;27.910;2022-07-04T00:06:36;10.10;;;7.00;;
11522;SDS011;40093;43.224;27.910;2022-07-04T00:09:03;7.53;;;6.10;;
11522;SDS011;40093;43.224;27.910;2022-07-04T00:11:30;8.10;;;6.37;;
11522;SDS011;40093;43.224;27.910;2022-07-04T00:13:57;8.07;;;6.77;;
11522;SDS011;40093;43.224;27.910;2022-07-04T00:16:25;9.87;;;6.60;;
11522;SDS011;40093;43.224;27.910;2022-07-04T00:18:52;9.97;;;6.60;;
11522;SDS011;40093;43.224;27.910;2022-07-04T00:21:19;10.43;;;6.57;;
11522;SDS011;40093;43.224;27.910;2022-07-04T00:23:46;7.50;;;6.70;;
11522;SDS011;40093;43.224;27.910;2022-07-04T00:26:13;9.63;;;6.77;;
11522;SDS011;40093;43.224;27.910;2022-07-04T00:28:41;8.40;;;6.73;;
11522;SDS011;40093;43.224;27.910;2022-07-04T00:31:08;8.93;;;6.43;;
11522;SDS011;40093;43.224;27.910;2022-07-04T00:33:36;8.17;;;6.43;;
11522;SDS011;40093;43.224;27.910;2022-07-04T00:36:03;8.77;;;6.73;;
11522;SDS011;40093;43.224;27.910;2022-07-04T00:38:30;10.50;;;6.77;;
11522;SDS011;40093;43.224;27.910;2022-07-04T00:40:57;9.30;;;6.10;;
11522;SDS011;40093;43.224;27.910;2022-07-04T00:43:25;6.07;;;5.30;;
11522;SDS011;40093;43.224;27.910;2022-07-04T00:45:53;6.63;;;5.60;;
11522;SDS011;40093;43.224;27.910;2022-07-04T00:48:20;8.00;;;5.40;;
11522;SDS011;40093;43.224;27.910;2022-07-04T00:50:48;5.97;;;5.23;;
11522;SDS011;40093;43.224;27.910;2022-07-04T00:53:15;8.40;;;5.83;;
11522;SDS011;40093;43.224;27.910;2022-07-04T00:55:45;9.40;;;6.60;;
11522;SDS011;40093;43.224;27.910;2022-07-04T00:58:12;9.40;;;6.67;;
11522;SDS011;40093;43.224;27.910;2022-07-04T01:00:40;11.53;;;6.57;;
11522;SDS011;40093;43.224;27.910;2022-07-04T01:03:08;9.13;;;6.90;;
11522;SDS011;40093;43.224;27.910;2022-07-04T01:05:34;10.53;;;7.70;;
11522;SDS011;40093;43.224;27.910;2022-07-04T01:08:03;13.13;;;6.77;;
11522;SDS011;40093;43.224;27.910;2022-07-04T01:10:31;14.10;;;6.80;;
11522;SDS011;40093;43.224;27.910;2022-07-04T01:12:59;12.60;;;6.83;;
11522;SDS011;40093;43.224;27.910;2022-07-04T01:15:26;8.93;;;6.43;;
11522;SDS011;40093;43.224;27.910;2022-07-04T01:17:52;9.53;;;6.00;;
11522;SDS011;40093;43.224;27.910;2022-07-04T01:20:21;8.13;;;6.20;;
11522;SDS011;40093;43.224;27.910;2022-07-04T01:22:49;10.10;;;5.60;;
11522;SDS011;40093;43.224;27.910;2022-07-04T01:25:16;9.97;;;5.93;;
11522;SDS011;40093;43.224;27.910;2022-07-04T01:27:43;6.37;;;5.20;;
11522;SDS011;40093;43.224;27.910;2022-07-04T01:30:10;5.43;;;4.73;;
11522;SDS011;40093;43.224;27.910;2022-07-04T01:32:37;6.07;;;4.80;;
11522;SDS011;40093;43.224;27.910;2022-07-04T01:35:04;7.90;;;5.60;;
11522;SDS011;40093;43.224;27.910;2022-07-04T01:37:33;8.27;;;5.90;;
11522;SDS011;40093;43.224;27.910;2022-07-04T01:40:00;7.17;;;5.33;;
11522;SDS011;40093;43.224;27.910;2022-07-04T01:42:27;10.23;;;5.87;;
11522;SDS011;40093;43.224;27.910;2022-07-04T01:44:54;9.60;;;6.07;;
11522;SDS011;40093;43.224;27.910;2022-07-04T01:47:21;10.70;;;5.83;;
11522;SDS011;40093;43.224;27.910;2022-07-04T01:49:48;11.60;;;6.57;;
11522;SDS011;40093;43.224;27.910;2022-07-04T01:52:15;13.47;;;7.20;;
11522;SDS011;40093;43.224;27.910;2022-07-04T01:54:43;11.17;;;6.90;;
11522;SDS011;40093;43.224;27.910;2022-07-04T01:57:10;11.90;;;6.60;;
11522;SDS011;40093;43.224;27.910;2022-07-04T01:59:38;11.40;;;6.33;;
11522;SDS011;40093;43.224;27.910;2022-07-04T02:02:22;9.77;;;6.10;;
11522;SDS011;40093;43.224;27.910;2022-07-04T02:04:49;8.97;;;5.80;;
11522;SDS011;40093;43.224;27.910;2022-07-04T02:07:16;9.57;;;5.73;;
11522;SDS011;40093;43.224;27.910;2022-07-04T02:09:44;6.83;;;5.33;;
11522;SDS011;40093;43.224;27.910;2022-07-04T02:12:11;12.93;;;5.87;;
11522;SDS011;40093;43.224;27.910;2022-07-04T02:14:55;11.07;;;5.87;;
11522;SDS011;40093;43.224;27.910;2022-07-04T02:17:22;9.33;;;6.40;;
11522;SDS011;40093;43.224;27.910;2022-07-04T02:19:49;10.67;;;6.90;;
11522;SDS011;40093;43.224;27.910;2022-07-04T02:22:16;11.27;;;6.70;;
11522;SDS011;40093;43.224;27.910;2022-07-04T02:24:46;10.33;;;5.53;;
11522;SDS011;40093;43.224;27.910;2022-07-04T02:27:13;10.00;;;5.40;;
11522;SDS011;40093;43.224;27.910;2022-07-04T02:29:40;11.77;;;5.63;;
11522;SDS011;40093;43.224;27.910;2022-07-04T02:32:07;11.33;;;5.83;;
11522;SDS011;40093;43.224;27.910;2022-07-04T02:34:34;6.80;;;5.30;;
11522;SDS011;40093;43.224;27.910;2022-07-04T02:37:01;11.30;;;6.07;;
11522;SDS011;40093;43.224;27.910;2022-07-04T02:39:28;7.87;;;5.83;;
11522;SDS011;40093;43.224;27.910;2022-07-04T02:41:56;11.43;;;6.87;;
11522;SDS011;40093;43.224;27.910;2022-07-04T02:44:23;12.80;;;7.87;;
11522;SDS011;40093;43.224;27.910;2022-07-04T02:46:50;13.93;;;7.50;;
11522;SDS011;40093;43.224;27.910;2022-07-04T02:49:17;18.13;;;8.77;;
11522;SDS011;40093;43.224;27.910;2022-07-04T02:51:44;17.30;;;9.13;;
11522;SDS011;40093;43.224;27.910;2022-07-04T02:54:11;22.90;;;8.63;;
11522;SDS011;40093;43.224;27.910;2022-07-04T02:56:38;17.77;;;8.80;;
11522;SDS011;40093;43.224;27.910;2022-07-04T02:59:06;17.03;;;9.40;;
11522;SDS011;40093;43.224;27.910;2022-07-04T03:01:33;18.33;;;9.77;;
11522;SDS011;40093;43.224;27.910;2022-07-04T03:04:00;19.30;;;9.53;;
11522;SDS011;40093;43.224;27.910;2022-07-04T03:06:28;16.20;;;9.93;;
11522;SDS011;40093;43.224;27.910;2022-07-04T03:08:55;18.97;;;9.80;;
11522;SDS011;40093;43.224;27.910;2022-07-04T03:11:22;14.23;;;8.37;;
11522;SDS011;40093;43.224;27.910;2022-07-04T03:13:49;17.23;;;8.33;;
11522;SDS011;40093;43.224;27.910;2022-07-04T03:16:17;14.87;;;8.33;;
11522;SDS011;40093;43.224;27.910;2022-07-04T03:18:44;21.30;;;10.77;;
11522;SDS011;40093;43.224;27.910;2022-07-04T03:21:11;23.60;;;8.70;;
11522;SDS011;40093;43.224;27.910;2022-07-04T03:23:37;20.13;;;9.70;;
11522;SDS011;40093;43.224;27.910;2022-07-04T03:26:04;12.53;;;7.97;;
11522;SDS011;40093;43.224;27.910;2022-07-04T03:28:31;14.87;;;7.40;;
11522;SDS011;40093;43.224;27.910;2022-07-04T03:30:58;16.50;;;9.60;;
11522;SDS011;40093;43.224;27.910;2022-07-04T03:33:26;12.10;;;7.33;;
11522;SDS011;40093;43.224;27.910;2022-07-04T03:35:53;8.90;;;5.70;;
11522;SDS011;40093;43.224;27.910;2022-07-04T03:38:20;10.47;;;6.20;;
11522;SDS011;40093;43.224;27.910;2022-07-04T03:40:48;16.87;;;9.10;;
11522;SDS011;40093;43.224;27.910;2022-07-04T03:43:29;18.43;;;8.53;;
11522;SDS011;40093;43.224;27.910;2022-07-04T03:45:56;19.37;;;9.43;;
11522;SDS011;40093;43.224;27.910;2022-07-04T03:48:23;23.83;;;9.43;;
11522;SDS011;40093;43.224;27.910;2022-07-04T03:50:51;18.27;;;8.87;;
11522;SDS011;40093;43.224;27.910;2022-07-04T03:53:18;18.47;;;8.90;;
11522;SDS011;40093;43.224;27.910;2022-07-04T03:55:45;17.10;;;9.03;;
11522;SDS011;40093;43.224;27.910;2022-07-04T03:58:12;14.07;;;9.83;;
11522;SDS011;40093;43.224;27.910;2022-07-04T04:00:39;19.80;;;9.63;;
11522;SDS011;40093;43.224;27.910;2022-07-04T04:03:07;16.60;;;11.87;;
11522;SDS011;40093;43.224;27.910;2022-07-04T04:05:55;19.90;;;9.23;;
11522;SDS011;40093;43.224;27.910;2022-07-04T04:08:21;21.53;;;10.63;;
11522;SDS011;40093;43.224;27.910;2022-07-04T04:10:49;18.33;;;11.50;;
11522;SDS011;40093;43.224;27.910;2022-07-04T04:13:17;18.33;;;9.87;;
11522;SDS011;40093;43.224;27.910;2022-07-04T04:15:43;21.93;;;10.23;;
11522;SDS011;40093;43.224;27.910;2022-07-04T04:18:10;16.87;;;9.53;;
11522;SDS011;40093;43.224;27.910;2022-07-04T04:20:37;27.80;;;9.80;;
11522;SDS011;40093;43.224;27.910;2022-07-04T04:23:06;19.00;;;13.87;;
11522;SDS011;40093;43.224;27.910;2022-07-04T04:25:33;22.20;;;12.53;;
11522;SDS011;40093;43.224;27.910;2022-07-04T04:28:00;18.50;;;10.50;;
11522;SDS011;40093;43.224;27.910;2022-07-04T04:30:27;16.90;;;10.13;;
11522;SDS011;40093;43.224;27.910;2022-07-04T04:32:54;14.53;;;9.67;;
11522;SDS011;40093;43.224;27.910;2022-07-04T04:35:22;20.30;;;9.77;;
11522;SDS011;40093;43.224;27.910;2022-07-04T04:37:49;20.53;;;10.20;;
11522;SDS011;40093;43.224;27.910;2022-07-04T04:40:17;15.37;;;9.53;;
11522;SDS011;40093;43.224;27.910;2022-07-04T04:42:44;15.27;;;9.37;;
11522;SDS011;40093;43.224;27.910;2022-07-04T04:45:11;19.07;;;9.33;;
11522;SDS011;40093;43.224;27.910;2022-07-04T04:47:38;17.47;;;11.00;;
11522;SDS011;40093;43.224;27.910;2022-07-04T04:50:06;20.90;;;12.97;;
11522;SDS011;40093;43.224;27.910;2022-07-04T04:52:36;25.73;;;12.03;;
11522;SDS011;40093;43.224;27.910;2022-07-04T04:55:04;17.33;;;10.47;;
11522;SDS011;40093;43.224;27.910;2022-07-04T04:57:32;22.47;;;10.23;;
11522;SDS011;40093;43.224;27.910;2022-07-04T05:00:00;26.13;;;11.20;;
11522;SDS011;40093;43.224;27.910;2022-07-04T05:02:29;29.27;;;10.50;;
11522;SDS011;40093;43.224;27.910;2022-07-04T05:04:56;22.30;;;9.93;;
11522;SDS011;40093;43.224;27.910;2022-07-04T05:07:23;24.00;;;9.87;;
11522;SDS011;40093;43.224;27.910;2022-07-04T05:09:50;19.90;;;10.37;;
11522;SDS011;40093;43.224;27.910;2022-07-04T05:12:23;18.00;;;9.60;;
11522;SDS011;40093;43.224;27.910;2022-07-04T05:14:52;16.43;;;9.33;;
11522;SDS011;40093;43.224;27.910;2022-07-04T05:17:19;15.23;;;9.23;;
11522;SDS011;40093;43.224;27.910;2022-07-04T05:19:46;17.10;;;10.03;;
11522;SDS011;40093;43.224;27.910;2022-07-04T05:22:13;14.70;;;9.40;;
11522;SDS011;40093;43.224;27.910;2022-07-04T05:24:40;15.23;;;10.03;;
11522;SDS011;40093;43.224;27.910;2022-07-04T05:27:08;21.90;;;10.70;;
11522;SDS011;40093;43.224;27.910;2022-07-04T05:29:35;27.33;;;11.90;;
11522;SDS011;40093;43.224;27.910;2022-07-04T05:32:04;23.87;;;12.57;;
11522;SDS011;40093;43.224;27.910;2022-07-04T05:34:31;22.43;;;10.83;;
11522;SDS011;40093;43.224;27.910;2022-07-04T05:36:58;13.67;;;8.63;;
11522;SDS011;40093;43.224;27.910;2022-07-04T05:39:25;15.73;;;10.17;;
11522;SDS011;40093;43.224;27.910;2022-07-04T05:41:52;14.30;;;9.60;;
11522;SDS011;40093;43.224;27.910;2022-07-04T05:44:19;13.43;;;8.70;;
11522;SDS011;40093;43.224;27.910;2022-07-04T05:46:46;19.50;;;9.00;;
11522;SDS011;40093;43.224;27.910;2022-07-04T05:49:14;6.30;;;5.47;;
11522;SDS011;40093;43.224;27.910;2022-07-04T05:51:41;7.53;;;4.80;;
11522;SDS011;40093;43.224;27.910;2022-07-04T05:54:08;8.23;;;4.17;;
11522;SDS011;40093;43.224;27.910;2022-07-04T05:56:35;6.77;;;4.40;;
11522;SDS011;40093;43.224;27.910;2022-07-04T05:59:02;8.80;;;4.43;;
11522;SDS011;40093;43.224;27.910;2022-07-04T06:01:29;4.73;;;3.90;;
11522;SDS011;40093;43.224;27.910;2022-07-04T06:03:56;7.37;;;4.00;;
11522;SDS011;40093;43.224;27.910;2022-07-04T06:06:25;5.30;;;3.83;;
11522;SDS011;40093;43.224;27.910;2022-07-04T06:08:52;6.23;;;4.03;;
11522;SDS011;40093;43.224;27.910;2022-07-04T06:11:18;5.70;;;3.50;;
11522;SDS011;40093;43.224;27.910;2022-07-04T06:13:45;4.90;;;3.43;;
11522;SDS011;40093;43.224;27.910;2022-07-04T06:16:13;3.87;;;3.37;;
11522;SDS011;40093;43.224;27.910;2022-07-04T06:18:40;6.40;;;3.70;;
11522;SDS011;40093;43.224;27.910;2022-07-04T06:21:07;4.80;;;3.60;;
11522;SDS011;40093;43.224;27.910;2022-07-04T06:23:35;6.43;;;3.73;;
11522;SDS011;40093;43.224;27.910;2022-07-04T06:26:02;5.43;;;3.67;;
11522;SDS011;40093;43.224;27.910;2022-07-04T06:28:29;5.20;;;3.37;;
11522;SDS011;40093;43.224;27.910;2022-07-04T06:30:56;6.27;;;3.57;;
11522;SDS011;40093;43.224;27.910;2022-07-04T06:33:23;4.10;;;3.00;;
11522;SDS011;40093;43.224;27.910;2022-07-04T06:35:50;5.73;;;3.20;;
11522;SDS011;40093;43.224;27.910;2022-07-04T06:38:21;5.00;;;3.60;;
11522;SDS011;40093;43.224;27.910;2022-07-04T06:40:53;5.17;;;3.50;;
11522;SDS011;40093;43.224;27.910;2022-07-04T06:43:20;4.47;;;3.27;;
11522;SDS011;40093;43.224;27.910;2022-07-04T06:45:48;4.93;;;3.20;;
11522;SDS011;40093;43.224;27.910;2022-07-04T06:48:16;4.93;;;3.07;;
11522;SDS011;40093;43.224;27.910;2022-07-04T06:50:43;6.47;;;2.97;;
11522;SDS011;40093;43.224;27.910;2022-07-04T06:53:10;6.07;;;3.37;;
11522;SDS011;40093;43.224;27.910;2022-07-04T06:55:37;4.83;;;3.40;;
11522;SDS011;40093;43.224;27.910;2022-07-04T06:58:07;5.60;;;3.83;;
11522;SDS011;40093;43.224;27.910;2022-07-04T07:00:35;5.23;;;3.20;;
11522;SDS011;40093;43.224;27.910;2022-07-04T07:03:02;6.03;;;3.23;;
11522;SDS011;40093;43.224;27.910;2022-07-04T07:05:30;5.60;;;3.50;;
11522;SDS011;40093;43.224;27.910;2022-07-04T07:07:57;4.37;;;2.97;;
11522;SDS011;40093;43.224;27.910;2022-07-04T07:10:23;4.23;;;3.23;;
11522;SDS011;40093;43.224;27.910;2022-07-04T07:12:50;5.27;;;3.37;;
11522;SDS011;40093;43.224;27.910;2022-07-04T07:15:19;5.77;;;3.10;;
11522;SDS011;40093;43.224;27.910;2022-07-04T07:17:46;4.73;;;3.07;;
11522;SDS011;40093;43.224;27.910;2022-07-04T07:20:13;5.63;;;3.10;;
11522;SDS011;40093;43.224;27.910;2022-07-04T07:22:40;7.67;;;3.67;;
11522;SDS011;40093;43.224;27.910;2022-07-04T07:25:08;5.97;;;3.50;;
11522;SDS011;40093;43.224;27.910;2022-07-04T07:27:35;8.60;;;3.80;;
11522;SDS011;40093;43.224;27.910;2022-07-04T07:30:02;7.70;;;3.50;;
11522;SDS011;40093;43.224;27.910;2022-07-04T07:32:31;5.20;;;3.30;;
11522;SDS011;40093;43.224;27.910;2022-07-04T07:34:59;4.83;;;3.40;;
11522;SDS011;40093;43.224;27.910;2022-07-04T07:37:25;6.33;;;3.60;;
11522;SDS011;40093;43.224;27.910;2022-07-04T07:39:52;6.27;;;3.60;;
11522;SDS011;40093;43.224;27.910;2022-07-04T07:42:19;4.33;;;3.23;;
11522;SDS011;40093;43.224;27.910;2022-07-04T07:44:46;7.70;;;3.50;;
11522;SDS011;40093;43.224;27.910;2022-07-04T07:47:13;11.23;;;3.80;;
11522;SDS011;40093;43.224;27.910;2022-07-04T07:49:42;7.90;;;3.83;;
11522;SDS011;40093;43.224;27.910;2022-07-04T07:52:12;5.67;;;3.77;;
11522;SDS011;40093;43.224;27.910;2022-07-04T07:54:39;3.20;;;2.90;;
11522;SDS011;40093;43.224;27.910;2022-07-04T07:57:06;8.77;;;3.80;;
11522;SDS011;40093;43.224;27.910;2022-07-04T07:59:33;5.50;;;3.50;;
11522;SDS011;40093;43.224;27.910;2022-07-04T08:02:00;5.57;;;3.20;;
11522;SDS011;40093;43.224;27.910;2022-07-04T08:04:27;6.40;;;3.47;;
11522;SDS011;40093;43.224;27.910;2022-07-04T08:07:05;3.50;;;3.20;;
11522;SDS011;40093;43.224;27.910;2022-07-04T08:09:33;4.87;;;3.60;;
11522;SDS011;40093;43.224;27.910;2022-07-04T08:12:01;3.80;;;3.00;;
11522;SDS011;40093;43.224;27.910;2022-07-04T08:14:29;6.80;;;3.33;;
11522;SDS011;40093;43.224;27.910;2022-07-04T08:16:57;3.97;;;3.10;;
11522;SDS011;40093;43.224;27.910;2022-07-04T08:19:25;6.53;;;3.10;;
11522;SDS011;40093;43.224;27.910;2022-07-04T08:21:52;4.50;;;3.27;;
11522;SDS011;40093;43.224;27.910;2022-07-04T08:24:20;5.50;;;3.27;;
11522;SDS011;40093;43.224;27.910;2022-07-04T08:26:48;4.10;;;2.80;;
11522;SDS011;40093;43.224;27.910;2022-07-04T08:29:15;3.80;;;2.60;;
11522;SDS011;40093;43.224;27.910;2022-07-04T08:31:44;4.60;;;3.00;;
11522;SDS011;40093;43.224;27.910;2022-07-04T08:34:11;3.30;;;3.00;;
11522;SDS011;40093;43.224;27.910;2022-07-04T08:36:38;3.73;;;2.40;;
11522;SDS011;40093;43.224;27.910;2022-07-04T08:39:05;3.80;;;2.60;;
11522;SDS011;40093;43.224;27.910;2022-07-04T08:41:35;2.93;;;1.80;;
11522;SDS011;40093;43.224;27.910;2022-07-04T08:44:04;4.50;;;2.63;;
11522;SDS011;40093;43.224;27.910;2022-07-04T08:46:32;3.13;;;2.60;;
11522;SDS011;40093;43.224;27.910;2022-07-04T08:49:02;3.33;;;2.40;;
11522;SDS011;40093;43.224;27.910;2022-07-04T08:51:37;3.47;;;2.50;;
11522;SDS011;40093;43.224;27.910;2022-07-04T08:54:10;4.33;;;2.50;;
11522;SDS011;40093;43.224;27.910;2022-07-04T08:56:54;4.13;;;2.30;;
11522;SDS011;40093;43.224;27.910;2022-07-04T08:59:39;4.53;;;2.50;;
11522;SDS011;40093;43.224;27.910;2022-07-04T09:02:10;3.57;;;2.67;;
11522;SDS011;40093;43.224;27.910;2022-07-04T09:04:39;7.30;;;2.80;;
11522;SDS011;40093;43.224;27.910;2022-07-04T09:07:10;5.33;;;2.60;;
11522;SDS011;40093;43.224;27.910;2022-07-04T09:09:39;4.23;;;2.70;;
11522;SDS011;40093;43.224;27.910;2022-07-04T09:12:08;6.10;;;2.73;;
11522;SDS011;40093;43.224;27.910;2022-07-04T09:14:36;4.20;;;2.40;;
11522;SDS011;40093;43.224;27.910;2022-07-04T09:17:03;3.53;;;2.47;;
11522;SDS011;40093;43.224;27.910;2022-07-04T09:19:30;1.87;;;1.70;;
11522;SDS011;40093;43.224;27.910;2022-07-04T09:22:01;1.83;;;1.70;;
11522;SDS011;40093;43.224;27.910;2022-07-04T09:24:46;3.07;;;2.00;;
11522;SDS011;40093;43.224;27.910;2022-07-04T09:27:31;4.17;;;2.13;;
11522;SDS011;40093;43.224;27.910;2022-07-04T09:30:00;5.07;;;2.40;;
11522;SDS011;40093;43.224;27.910;2022-07-04T09:32:34;3.77;;;2.30;;
11522;SDS011;40093;43.224;27.910;2022-07-04T09:35:03;4.27;;;2.50;;
11522;SDS011;40093;43.224;27.910;2022-07-04T09:37:34;3.27;;;2.00;;
11522;SDS011;40093;43.224;27.910;2022-07-04T09:40:03;4.23;;;2.47;;
11522;SDS011;40093;43.224;27.910;2022-07-04T09:42:40;2.77;;;2.30;;
11522;SDS011;40093;43.224;27.910;2022-07-04T09:45:09;3.43;;;1.70;;
11522;SDS011;40093;43.224;27.910;2022-07-04T09:47:37;4.13;;;2.20;;
11522;SDS011;40093;43.224;27.910;2022-07-04T09:50:06;2.13;;;1.77;;
11522;SDS011;40093;43.224;27.910;2022-07-04T09:52:44;2.37;;;1.80;;
11522;SDS011;40093;43.224;27.910;2022-07-04T09:55:12;1.70;;;1.60;;
11522;SDS011;40093;43.224;27.910;2022-07-04T09:57:47;2.60;;;2.07;;
11522;SDS011;40093;43.224;27.910;2022-07-04T10:00:18;3.03;;;2.20;;
11522;SDS011;40093;43.224;27.910;2022-07-04T10:02:46;3.17;;;1.83;;
11522;SDS011;40093;43.224;27.910;2022-07-04T10:05:17;3.67;;;2.30;;
11522;SDS011;40093;43.224;27.910;2022-07-04T10:07:47;3.07;;;2.20;;
11522;SDS011;40093;43.224;27.910;2022-07-04T10:10:20;2.53;;;1.90;;
11522;SDS011;40093;43.224;27.910;2022-07-04T10:12:50;3.13;;;2.00;;
11522;SDS011;40093;43.224;27.910;2022-07-04T10:15:18;3.23;;;2.07;;
11522;SDS011;40093;43.224;27.910;2022-07-04T10:17:46;4.47;;;1.90;;
11522;SDS011;40093;43.224;27.910;2022-07-04T10:20:13;2.43;;;1.70;;
11522;SDS011;40093;43.224;27.910;2022-07-04T10:22:40;2.57;;;1.90;;
11522;SDS011;40093;43.224;27.910;2022-07-04T10:25:08;3.63;;;2.00;;
11522;SDS011;40093;43.224;27.910;2022-07-04T10:27:36;2.17;;;1.70;;
11522;SDS011;40093;43.224;27.910;2022-07-04T10:30:06;2.37;;;1.50;;
11522;SDS011;40093;43.224;27.910;2022-07-04T10:32:35;4.47;;;1.97;;
11522;SDS011;40093;43.224;27.910;2022-07-04T10:35:04;2.57;;;1.80;;
11522;SDS011;40093;43.224;27.910;2022-07-04T10:49:05;3.27;;;1.90;;
11522;SDS011;40093;43.224;27.910;2022-07-04T10:51:35;2.23;;;2.00;;
11522;SDS011;40093;43.224;27.910;2022-07-04T10:54:08;4.57;;;2.33;;
11522;SDS011;40093;43.224;27.910;2022-07-04T10:56:39;2.20;;;2.00;;
11522;SDS011;40093;43.224;27.910;2022-07-04T10:59:08;3.53;;;2.20;;
11522;SDS011;40093;43.224;27.910;2022-07-04T11:01:39;2.93;;;2.20;;
11522;SDS011;40093;43.224;27.910;2022-07-04T11:04:11;3.37;;;1.97;;
11522;SDS011;40093;43.224;27.910;2022-07-04T11:06:51;4.10;;;2.30;;
11522;SDS011;40093;43.224;27.910;2022-07-04T11:09:22;4.80;;;2.13;;
11522;SDS011;40093;43.224;27.910;2022-07-04T11:11:51;3.00;;;2.00;;
11522;SDS011;40093;43.224;27.910;2022-07-04T11:14:35;3.00;;;2.23;;
11522;SDS011;40093;43.224;27.910;2022-07-04T11:17:07;2.47;;;2.10;;
11522;SDS011;40093;43.224;27.910;2022-07-04T11:19:36;3.63;;;2.33;;
11522;SDS011;40093;43.224;27.910;2022-07-04T11:22:03;4.27;;;2.47;;
11522;SDS011;40093;43.224;27.910;2022-07-04T11:24:31;6.67;;;2.60;;
11522;SDS011;40093;43.224;27.910;2022-07-04T11:26:59;5.00;;;2.43;;
11522;SDS011;40093;43.224;27.910;2022-07-04T11:29:26;3.93;;;2.33;;
11522;SDS011;40093;43.224;27.910;2022-07-04T11:31:54;4.60;;;2.53;;
11522;SDS011;40093;43.224;27.910;2022-07-04T11:34:23;3.57;;;2.40;;
11522;SDS011;40093;43.224;27.910;2022-07-04T11:36:51;4.57;;;2.30;;
11522;SDS011;40093;43.224;27.910;2022-07-04T11:39:19;5.60;;;2.40;;
11522;SDS011;40093;43.224;27.910;2022-07-04T11:41:47;7.23;;;2.70;;
11522;SDS011;40093;43.224;27.910;2022-07-04T11:44:34;4.40;;;2.70;;
11522;SDS011;40093;43.224;27.910;2022-07-04T11:47:35;3.20;;;2.37;;
11522;SDS011;40093;43.224;27.910;2022-07-04T11:50:04;6.27;;;2.70;;
11522;SDS011;40093;43.224;27.910;2022-07-04T11:52:43;5.50;;;2.60;;
11522;SDS011;40093;43.224;27.910;2022-07-04T11:55:12;7.03;;;2.90;;
11522;SDS011;40093;43.224;27.910;2022-07-04T11:57:41;3.90;;;2.40;;
11522;SDS011;40093;43.224;27.910;2022-07-04T12:00:11;3.07;;;2.20;;
11522;SDS011;40093;43.224;27.910;2022-07-04T12:02:40;5.60;;;2.90;;
11522;SDS011;40093;43.224;27.910;2022-07-04T12:05:11;4.97;;;2.40;;
11522;SDS011;40093;43.224;27.910;2022-07-04T12:07:38;3.73;;;2.40;;
11522;SDS011;40093;43.224;27.910;2022-07-04T12:10:07;3.83;;;2.40;;
11522;SDS011;40093;43.224;27.910;2022-07-04T12:12:35;4.10;;;2.50;;
11522;SDS011;40093;43.224;27.910;2022-07-04T12:15:03;6.00;;;2.73;;
11522;SDS011;40093;43.224;27.910;2022-07-04T12:17:33;7.70;;;2.83;;
11522;SDS011;40093;43.224;27.910;2022-07-04T12:20:02;5.47;;;2.50;;
11522;SDS011;40093;43.224;27.910;2022-07-04T12:22:38;3.77;;;2.40;;
11522;SDS011;40093;43.224;27.910;2022-07-04T12:25:08;2.93;;;2.40;;
11522;SDS011;40093;43.224;27.910;2022-07-04T12:27:51;4.27;;;2.63;;
11522;SDS011;40093;43.224;27.910;2022-07-04T12:30:19;3.87;;;2.50;;
11522;SDS011;40093;43.224;27.910;2022-07-04T12:32:47;3.40;;;2.50;;
11522;SDS011;40093;43.224;27.910;2022-07-04T12:35:35;3.27;;;2.50;;
11522;SDS011;40093;43.224;27.910;2022-07-04T12:38:06;4.00;;;2.60;;
11522;SDS011;40093;43.224;27.910;2022-07-04T12:40:34;5.27;;;2.43;;
11522;SDS011;40093;43.224;27.910;2022-07-04T12:43:02;5.37;;;2.60;;
11522;SDS011;40093;43.224;27.910;2022-07-04T12:48:16;3.50;;;2.50;;
11522;SDS011;40093;43.224;27.910;2022-07-04T12:50:44;5.00;;;2.70;;
11522;SDS011;40093;43.224;27.910;2022-07-04T12:53:13;3.17;;;2.40;;
11522;SDS011;40093;43.224;27.910;2022-07-04T12:55:41;3.43;;;2.70;;
11522;SDS011;40093;43.224;27.910;2022-07-04T12:58:08;4.80;;;2.47;;
11522;SDS011;40093;43.224;27.910;2022-07-04T13:00:36;3.53;;;2.70;;
11522;SDS011;40093;43.224;27.910;2022-07-04T13:03:03;5.80;;;2.70;;
11522;SDS011;40093;43.224;27.910;2022-07-04T13:05:30;4.57;;;3.40;;
11522;SDS011;40093;43.224;27.910;2022-07-04T13:08:00;3.10;;;2.20;;
11522;SDS011;40093;43.224;27.910;2022-07-04T13:10:28;2.77;;;2.23;;
11522;SDS011;40093;43.224;27.910;2022-07-04T13:12:55;3.80;;;2.20;;
11522;SDS011;40093;43.224;27.910;2022-07-04T13:15:22;3.60;;;2.40;;
11522;SDS011;40093;43.224;27.910;2022-07-04T13:17:50;3.17;;;2.30;;
11522;SDS011;40093;43.224;27.910;2022-07-04T13:20:17;3.40;;;2.60;;
11522;SDS011;40093;43.224;27.910;2022-07-04T13:22:44;5.40;;;2.73;;
11522;SDS011;40093;43.224;27.910;2022-07-04T13:25:11;4.50;;;2.20;;
11522;SDS011;40093;43.224;27.910;2022-07-04T13:27:39;5.20;;;2.70;;
11522;SDS011;40093;43.224;27.910;2022-07-04T13:30:07;3.90;;;2.43;;
11522;SDS011;40093;43.224;27.910;2022-07-04T13:32:34;2.97;;;2.50;;
11522;SDS011;40093;43.224;27.910;2022-07-04T13:35:02;5.93;;;2.70;;
11522;SDS011;40093;43.224;27.910;2022-07-04T13:37:29;2.57;;;2.20;;
11522;SDS011;40093;43.224;27.910;2022-07-04T13:39:56;6.40;;;2.30;;
11522;SDS011;40093;43.224;27.910;2022-07-04T13:42:23;3.13;;;2.50;;
11522;SDS011;40093;43.224;27.910;2022-07-04T13:45:08;3.90;;;2.50;;
11522;SDS011;40093;43.224;27.910;2022-07-04T13:47:38;5.63;;;2.33;;
11522;SDS011;40093;43.224;27.910;2022-07-04T13:50:05;4.47;;;2.67;;
11522;SDS011;40093;43.224;27.910;2022-07-04T13:52:32;3.00;;;2.40;;
11522;SDS011;40093;43.224;27.910;2022-07-04T13:54:59;5.80;;;2.20;;
11522;SDS011;40093;43.224;27.910;2022-07-04T13:57:26;3.03;;;2.20;;
11522;SDS011;40093;43.224;27.910;2022-07-04T13:59:53;7.80;;;2.67;;
11522;SDS011;40093;43.224;27.910;2022-07-04T14:02:22;2.40;;;2.20;;
11522;SDS011;40093;43.224;27.910;2022-07-04T14:04:48;5.53;;;2.53;;
11522;SDS011;40093;43.224;27.910;2022-07-04T14:07:15;3.43;;;2.57;;
11522;SDS011;40093;43.224;27.910;2022-07-04T14:09:42;4.07;;;2.57;;
11522;SDS011;40093;43.224;27.910;2022-07-04T14:12:09;3.77;;;2.30;;
11522;SDS011;40093;43.224;27.910;2022-07-04T14:14:36;3.40;;;2.80;;
11522;SDS011;40093;43.224;27.910;2022-07-04T14:17:03;5.30;;;2.50;;
11522;SDS011;40093;43.224;27.910;2022-07-04T14:19:31;5.10;;;2.67;;
11522;SDS011;40093;43.224;27.910;2022-07-04T14:21:58;3.27;;;2.47;;
11522;SDS011;40093;43.224;27.910;2022-07-04T14:24:25;3.67;;;2.60;;
11522;SDS011;40093;43.224;27.910;2022-07-04T14:26:52;3.70;;;2.30;;
11522;SDS011;40093;43.224;27.910;2022-07-04T14:29:19;3.83;;;2.40;;
11522;SDS011;40093;43.224;27.910;2022-07-04T14:31:47;7.50;;;2.67;;
11522;SDS011;40093;43.224;27.910;2022-07-04T14:34:13;3.77;;;2.90;;
11522;SDS011;40093;43.224;27.910;2022-07-04T14:36:42;4.53;;;2.23;;
11522;SDS011;40093;43.224;27.910;2022-07-04T14:39:09;4.00;;;2.50;;
11522;SDS011;40093;43.224;27.910;2022-07-04T14:41:36;4.47;;;2.50;;
11522;SDS011;40093;43.224;27.910;2022-07-04T14:44:03;3.43;;;2.20;;
11522;SDS011;40093;43.224;27.910;2022-07-04T14:46:30;2.40;;;2.20;;
11522;SDS011;40093;43.224;27.910;2022-07-04T14:48:57;5.47;;;2.30;;
11522;SDS011;40093;43.224;27.910;2022-07-04T14:51:24;3.60;;;2.50;;
11522;SDS011;40093;43.224;27.910;2022-07-04T14:53:53;4.03;;;2.50;;